sensor_id;sensor_type;location;lat;lon;timestamp;P1;durP1;ratioP1;P2;durP2;ratioP2
4317;SDS011;2172;53.576;9.934;2023-04-25T00:01:55;13.17;;;7.90;;
4317;SDS011;2172;53.576;9.934;2023-04-25T00:04:23;8.13;;;7.07;;
4317;SDS011;2172;53.576;9.934;2023-04-25T00:06:50;11.73;;;8.10;;
4317;SDS011;2172;53.576;9.934;2023-04-25T00:09:18;17.40;;;7.93;;
4317;SDS011;2172;53.576;9.934;2023-04-25T00:11:46;14.47;;;6.07;;
4317;SDS011;2172;53.576;9.934;2023-04-25T00:14:13;15.10;;;6.90;;
4317;SDS011;2172;53.576;9.934;2023-04-25T00:16:43;10.63;;;6.77;;
4317;SDS011;2172;53.576;9.934;2023-04-25T00:19:11;17.47;;;6.77;;
4317;SDS011;2172;53.576;9.934;2023-04-25T00:21:38;20.03;;;6.77;;
4317;SDS011;2172;53.576;9.934;2023-04-25T00:24:06;17.83;;;6.87;;
4317;SDS011;2172;53.576;9.934;2023-04-25T00:26:34;17.07;;;6.13;;
4317;SDS011;2172;53.576;9.934;2023-04-25T00:29:02;15.13;;;5.60;;
4317;SDS011;2172;53.576;9.934;2023-04-25T00:31:29;19.67;;;6.83;;
4317;SDS011;2172;53.576;9.934;2023-04-25T00:33:58;19.40;;;6.03;;
4317;SDS011;2172;53.576;9.934;2023-04-25T00:36:26;14.10;;;5.90;;
4317;SDS011;2172;53.576;9.934;2023-04-25T00:38:53;26.50;;;7.97;;
4317;SDS011;2172;53.576;9.934;2023-04-25T00:41:21;14.97;;;5.53;;
4317;SDS011;2172;53.576;9.934;2023-04-25T00:43:50;18.63;;;5.40;;
4317;SDS011;2172;53.576;9.934;2023-04-25T00:46:18;19.20;;;6.73;;
4317;SDS011;2172;53.576;9.934;2023-04-25T00:48:46;15.80;;;5.60;;
4317;SDS011;2172;53.576;9.934;2023-04-25T00:51:16;25.43;;;5.70;;
4317;SDS011;2172;53.576;9.934;2023-04-25T00:53:45;20.27;;;5.20;;
4317;SDS011;2172;53.576;9.934;2023-04-25T00:56:14;21.77;;;5.87;;
4317;SDS011;2172;53.576;9.934;2023-04-25T00:58:42;15.00;;;5.73;;
4317;SDS011;2172;53.576;9.934;2023-04-25T01:01:10;20.77;;;7.60;;
4317;SDS011;2172;53.576;9.934;2023-04-25T01:03:38;17.83;;;6.87;;
4317;SDS011;2172;53.576;9.934;2023-04-25T01:06:07;17.13;;;6.90;;
4317;SDS011;2172;53.576;9.934;2023-04-25T01:08:37;25.03;;;6.90;;
4317;SDS011;2172;53.576;9.934;2023-04-25T01:11:05;16.10;;;6.63;;
4317;SDS011;2172;53.576;9.934;2023-04-25T01:13:34;21.63;;;6.97;;
4317;SDS011;2172;53.576;9.934;2023-04-25T01:16:02;13.03;;;6.20;;
4317;SDS011;2172;53.576;9.934;2023-04-25T01:18:31;23.17;;;6.30;;
4317;SDS011;2172;53.576;9.934;2023-04-25T01:21:03;18.80;;;5.60;;
4317;SDS011;2172;53.576;9.934;2023-04-25T01:23:35;21.77;;;7.13;;
4317;SDS011;2172;53.576;9.934;2023-04-25T01:26:04;15.93;;;7.33;;
4317;SDS011;2172;53.576;9.934;2023-04-25T01:28:32;21.20;;;6.80;;
4317;SDS011;2172;53.576;9.934;2023-04-25T01:34:05;14.93;;;6.77;;
4317;SDS011;2172;53.576;9.934;2023-04-25T01:36:34;28.47;;;7.00;;
4317;SDS011;2172;53.576;9.934;2023-04-25T01:39:02;26.50;;;6.77;;
4317;SDS011;2172;53.576;9.934;2023-04-25T01:41:29;18.00;;;5.87;;
4317;SDS011;2172;53.576;9.934;2023-04-25T01:43:57;19.50;;;6.67;;
4317;SDS011;2172;53.576;9.934;2023-04-25T01:46:25;25.00;;;7.00;;
4317;SDS011;2172;53.576;9.934;2023-04-25T01:48:53;26.20;;;7.30;;
4317;SDS011;2172;53.576;9.934;2023-04-25T01:51:20;22.60;;;7.17;;
4317;SDS011;2172;53.576;9.934;2023-04-25T01:53:50;22.60;;;6.60;;
4317;SDS011;2172;53.576;9.934;2023-04-25T01:56:18;17.27;;;6.80;;
4317;SDS011;2172;53.576;9.934;2023-04-25T01:58:45;18.90;;;6.77;;
4317;SDS011;2172;53.576;9.934;2023-04-25T02:01:19;15.83;;;5.40;;
4317;SDS011;2172;53.576;9.934;2023-04-25T02:04:01;21.87;;;6.27;;
4317;SDS011;2172;53.576;9.934;2023-04-25T02:06:34;30.83;;;7.20;;
4317;SDS011;2172;53.576;9.934;2023-04-25T02:09:03;18.80;;;5.10;;
4317;SDS011;2172;53.576;9.934;2023-04-25T02:14:55;21.63;;;7.40;;
4317;SDS011;2172;53.576;9.934;2023-04-25T02:17:36;23.60;;;6.00;;
4317;SDS011;2172;53.576;9.934;2023-04-25T02:20:05;23.13;;;7.43;;
4317;SDS011;2172;53.576;9.934;2023-04-25T02:22:33;24.23;;;6.43;;
4317;SDS011;2172;53.576;9.934;2023-04-25T02:25:02;28.23;;;7.13;;
4317;SDS011;2172;53.576;9.934;2023-04-25T02:27:30;17.80;;;6.40;;
4317;SDS011;2172;53.576;9.934;2023-04-25T02:29:58;19.27;;;7.90;;
4317;SDS011;2172;53.576;9.934;2023-04-25T02:32:25;19.83;;;5.90;;
4317;SDS011;2172;53.576;9.934;2023-04-25T02:34:53;16.30;;;5.63;;
4317;SDS011;2172;53.576;9.934;2023-04-25T02:37:25;26.83;;;5.97;;
4317;SDS011;2172;53.576;9.934;2023-04-25T02:39:53;21.13;;;7.80;;
4317;SDS011;2172;53.576;9.934;2023-04-25T02:42:22;19.43;;;6.33;;
4317;SDS011;2172;53.576;9.934;2023-04-25T02:44:49;20.77;;;6.60;;
4317;SDS011;2172;53.576;9.934;2023-04-25T02:47:16;15.83;;;5.57;;
4317;SDS011;2172;53.576;9.934;2023-04-25T02:49:44;18.80;;;5.83;;
4317;SDS011;2172;53.576;9.934;2023-04-25T02:52:12;15.53;;;5.27;;
4317;SDS011;2172;53.576;9.934;2023-04-25T02:54:40;17.83;;;5.80;;
4317;SDS011;2172;53.576;9.934;2023-04-25T02:57:08;19.03;;;6.03;;
4317;SDS011;2172;53.576;9.934;2023-04-25T02:59:38;20.90;;;5.37;;
4317;SDS011;2172;53.576;9.934;2023-04-25T03:02:05;25.87;;;6.30;;
4317;SDS011;2172;53.576;9.934;2023-04-25T03:04:33;22.97;;;6.20;;
4317;SDS011;2172;53.576;9.934;2023-04-25T03:07:00;18.53;;;5.10;;
4317;SDS011;2172;53.576;9.934;2023-04-25T03:09:28;17.63;;;6.30;;
4317;SDS011;2172;53.576;9.934;2023-04-25T03:11:57;18.40;;;5.80;;
4317;SDS011;2172;53.576;9.934;2023-04-25T03:46:40;15.97;;;5.30;;
4317;SDS011;2172;53.576;9.934;2023-04-25T03:49:08;22.77;;;4.67;;
4317;SDS011;2172;53.576;9.934;2023-04-25T03:51:54;16.00;;;5.63;;
4317;SDS011;2172;53.576;9.934;2023-04-25T03:54:22;18.17;;;5.83;;
4317;SDS011;2172;53.576;9.934;2023-04-25T03:57:18;14.83;;;4.80;;
4317;SDS011;2172;53.576;9.934;2023-04-25T03:59:46;14.80;;;4.73;;
4317;SDS011;2172;53.576;9.934;2023-04-25T04:02:17;19.20;;;4.93;;
4317;SDS011;2172;53.576;9.934;2023-04-25T04:04:44;14.50;;;5.20;;
4317;SDS011;2172;53.576;9.934;2023-04-25T04:07:13;9.73;;;3.90;;
4317;SDS011;2172;53.576;9.934;2023-04-25T04:09:43;15.40;;;4.47;;
4317;SDS011;2172;53.576;9.934;2023-04-25T04:12:17;15.87;;;5.10;;
4317;SDS011;2172;53.576;9.934;2023-04-25T04:14:44;16.80;;;5.20;;
4317;SDS011;2172;53.576;9.934;2023-04-25T04:17:16;15.40;;;4.83;;
4317;SDS011;2172;53.576;9.934;2023-04-25T04:19:44;14.50;;;4.73;;
4317;SDS011;2172;53.576;9.934;2023-04-25T04:22:15;15.33;;;4.50;;
4317;SDS011;2172;53.576;9.934;2023-04-25T04:24:42;11.80;;;3.60;;
4317;SDS011;2172;53.576;9.934;2023-04-25T04:27:14;18.30;;;5.43;;
4317;SDS011;2172;53.576;9.934;2023-04-25T04:30:07;19.93;;;5.03;;
4317;SDS011;2172;53.576;9.934;2023-04-25T04:32:52;17.03;;;4.17;;
4317;SDS011;2172;53.576;9.934;2023-04-25T04:35:20;12.33;;;4.80;;
4317;SDS011;2172;53.576;9.934;2023-04-25T04:37:49;14.60;;;5.00;;
4317;SDS011;2172;53.576;9.934;2023-04-25T04:40:18;13.37;;;4.83;;
4317;SDS011;2172;53.576;9.934;2023-04-25T04:42:53;12.93;;;4.40;;
4317;SDS011;2172;53.576;9.934;2023-04-25T04:45:45;23.40;;;5.37;;
4317;SDS011;2172;53.576;9.934;2023-04-25T04:48:32;15.33;;;4.10;;
4317;SDS011;2172;53.576;9.934;2023-04-25T04:51:15;13.73;;;4.30;;
4317;SDS011;2172;53.576;9.934;2023-04-25T04:54:03;15.33;;;5.77;;
4317;SDS011;2172;53.576;9.934;2023-04-25T04:56:52;11.00;;;4.53;;
4317;SDS011;2172;53.576;9.934;2023-04-25T04:59:27;11.67;;;4.80;;
4317;SDS011;2172;53.576;9.934;2023-04-25T05:02:22;13.00;;;4.23;;
4317;SDS011;2172;53.576;9.934;2023-04-25T05:05:26;14.23;;;4.10;;
4317;SDS011;2172;53.576;9.934;2023-04-25T05:08:26;11.27;;;4.47;;
4317;SDS011;2172;53.576;9.934;2023-04-25T05:11:13;15.20;;;4.30;;
4317;SDS011;2172;53.576;9.934;2023-04-25T05:13:59;14.10;;;4.87;;
4317;SDS011;2172;53.576;9.934;2023-04-25T05:16:44;20.40;;;4.53;;
4317;SDS011;2172;53.576;9.934;2023-04-25T05:19:36;11.20;;;3.70;;
4317;SDS011;2172;53.576;9.934;2023-04-25T05:22:38;12.73;;;4.40;;
4317;SDS011;2172;53.576;9.934;2023-04-25T05:25:20;15.37;;;4.83;;
4317;SDS011;2172;53.576;9.934;2023-04-25T05:27:58;12.47;;;4.37;;
4317;SDS011;2172;53.576;9.934;2023-04-25T05:30:45;14.33;;;4.80;;
4317;SDS011;2172;53.576;9.934;2023-04-25T05:33:16;9.20;;;4.10;;
4317;SDS011;2172;53.576;9.934;2023-04-25T05:35:45;12.17;;;5.27;;
4317;SDS011;2172;53.576;9.934;2023-04-25T05:38:14;10.37;;;4.03;;
4317;SDS011;2172;53.576;9.934;2023-04-25T05:41:14;17.87;;;4.20;;
4317;SDS011;2172;53.576;9.934;2023-04-25T05:44:11;18.93;;;5.30;;
4317;SDS011;2172;53.576;9.934;2023-04-25T05:47:04;22.77;;;4.70;;
4317;SDS011;2172;53.576;9.934;2023-04-25T05:50:01;12.50;;;4.50;;
4317;SDS011;2172;53.576;9.934;2023-04-25T05:52:41;22.80;;;5.43;;
4317;SDS011;2172;53.576;9.934;2023-04-25T05:55:30;17.80;;;6.10;;
4317;SDS011;2172;53.576;9.934;2023-04-25T05:58:00;11.73;;;4.83;;
4317;SDS011;2172;53.576;9.934;2023-04-25T06:00:28;14.27;;;4.60;;
4317;SDS011;2172;53.576;9.934;2023-04-25T06:02:55;15.67;;;4.90;;
4317;SDS011;2172;53.576;9.934;2023-04-25T06:05:23;19.17;;;5.60;;
4317;SDS011;2172;53.576;9.934;2023-04-25T06:07:51;15.10;;;4.20;;
4317;SDS011;2172;53.576;9.934;2023-04-25T06:10:19;11.50;;;4.80;;
4317;SDS011;2172;53.576;9.934;2023-04-25T06:12:49;12.10;;;4.57;;
4317;SDS011;2172;53.576;9.934;2023-04-25T06:15:18;10.10;;;3.83;;
4317;SDS011;2172;53.576;9.934;2023-04-25T06:17:46;22.03;;;4.57;;
4317;SDS011;2172;53.576;9.934;2023-04-25T06:20:14;10.63;;;3.83;;
4317;SDS011;2172;53.576;9.934;2023-04-25T06:22:41;17.47;;;4.70;;
4317;SDS011;2172;53.576;9.934;2023-04-25T06:25:09;12.67;;;4.40;;
4317;SDS011;2172;53.576;9.934;2023-04-25T06:27:37;19.27;;;4.23;;
4317;SDS011;2172;53.576;9.934;2023-04-25T06:30:07;21.17;;;4.87;;
4317;SDS011;2172;53.576;9.934;2023-04-25T06:32:38;9.60;;;4.20;;
4317;SDS011;2172;53.576;9.934;2023-04-25T06:35:06;11.47;;;4.43;;
4317;SDS011;2172;53.576;9.934;2023-04-25T06:37:34;16.23;;;4.93;;
4317;SDS011;2172;53.576;9.934;2023-04-25T06:40:01;12.93;;;4.40;;
4317;SDS011;2172;53.576;9.934;2023-04-25T06:42:29;14.03;;;5.00;;
4317;SDS011;2172;53.576;9.934;2023-04-25T06:44:58;11.23;;;3.77;;
4317;SDS011;2172;53.576;9.934;2023-04-25T06:47:30;11.20;;;3.97;;
4317;SDS011;2172;53.576;9.934;2023-04-25T06:49:59;17.20;;;4.20;;
4317;SDS011;2172;53.576;9.934;2023-04-25T06:52:26;21.87;;;4.60;;
4317;SDS011;2172;53.576;9.934;2023-04-25T06:54:54;14.77;;;4.27;;
4317;SDS011;2172;53.576;9.934;2023-04-25T06:57:40;14.37;;;4.43;;
4317;SDS011;2172;53.576;9.934;2023-04-25T07:00:28;11.47;;;4.03;;
4317;SDS011;2172;53.576;9.934;2023-04-25T07:02:57;12.53;;;3.57;;
4317;SDS011;2172;53.576;9.934;2023-04-25T07:05:24;11.50;;;3.20;;
4317;SDS011;2172;53.576;9.934;2023-04-25T07:07:53;10.60;;;4.20;;
4317;SDS011;2172;53.576;9.934;2023-04-25T07:10:20;13.53;;;3.03;;
4317;SDS011;2172;53.576;9.934;2023-04-25T07:12:48;11.00;;;4.93;;
4317;SDS011;2172;53.576;9.934;2023-04-25T07:15:15;11.07;;;4.20;;
4317;SDS011;2172;53.576;9.934;2023-04-25T07:17:46;8.73;;;3.60;;
4317;SDS011;2172;53.576;9.934;2023-04-25T07:20:15;9.47;;;3.70;;
4317;SDS011;2172;53.576;9.934;2023-04-25T07:22:43;9.17;;;3.47;;
4317;SDS011;2172;53.576;9.934;2023-04-25T07:25:11;8.90;;;3.10;;
4317;SDS011;2172;53.576;9.934;2023-04-25T07:27:38;14.03;;;3.20;;
4317;SDS011;2172;53.576;9.934;2023-04-25T07:30:14;10.30;;;3.50;;
4317;SDS011;2172;53.576;9.934;2023-04-25T07:32:42;10.90;;;3.23;;
4317;SDS011;2172;53.576;9.934;2023-04-25T07:35:10;10.87;;;3.27;;
4317;SDS011;2172;53.576;9.934;2023-04-25T07:37:39;12.50;;;3.40;;
4317;SDS011;2172;53.576;9.934;2023-04-25T07:40:13;14.10;;;4.00;;
4317;SDS011;2172;53.576;9.934;2023-04-25T07:42:48;17.07;;;3.77;;
4317;SDS011;2172;53.576;9.934;2023-04-25T07:45:22;14.70;;;3.70;;
4317;SDS011;2172;53.576;9.934;2023-04-25T07:47:50;11.50;;;3.43;;
4317;SDS011;2172;53.576;9.934;2023-04-25T07:50:18;8.80;;;3.13;;
4317;SDS011;2172;53.576;9.934;2023-04-25T07:52:47;10.57;;;3.23;;
4317;SDS011;2172;53.576;9.934;2023-04-25T07:55:22;11.57;;;2.97;;
4317;SDS011;2172;53.576;9.934;2023-04-25T07:58:01;11.10;;;4.43;;
4317;SDS011;2172;53.576;9.934;2023-04-25T08:00:31;6.07;;;3.47;;
4317;SDS011;2172;53.576;9.934;2023-04-25T08:03:21;9.83;;;2.80;;
4317;SDS011;2172;53.576;9.934;2023-04-25T08:05:49;12.30;;;3.53;;
4317;SDS011;2172;53.576;9.934;2023-04-25T08:08:20;22.80;;;3.60;;
4317;SDS011;2172;53.576;9.934;2023-04-25T08:10:48;11.00;;;4.00;;
4317;SDS011;2172;53.576;9.934;2023-04-25T08:13:16;7.90;;;3.20;;
4317;SDS011;2172;53.576;9.934;2023-04-25T08:15:44;13.00;;;4.90;;
4317;SDS011;2172;53.576;9.934;2023-04-25T08:18:12;16.80;;;4.30;;
4317;SDS011;2172;53.576;9.934;2023-04-25T08:20:40;8.83;;;2.70;;
4317;SDS011;2172;53.576;9.934;2023-04-25T08:23:10;10.17;;;2.77;;
4317;SDS011;2172;53.576;9.934;2023-04-25T08:25:47;6.47;;;3.30;;
4317;SDS011;2172;53.576;9.934;2023-04-25T08:28:18;9.70;;;3.00;;
4317;SDS011;2172;53.576;9.934;2023-04-25T08:30:46;8.83;;;2.80;;
4317;SDS011;2172;53.576;9.934;2023-04-25T08:33:15;9.70;;;2.50;;
4317;SDS011;2172;53.576;9.934;2023-04-25T08:36:14;13.17;;;2.77;;
4317;SDS011;2172;53.576;9.934;2023-04-25T08:38:43;9.60;;;2.60;;
4317;SDS011;2172;53.576;9.934;2023-04-25T08:41:18;10.40;;;3.10;;
4317;SDS011;2172;53.576;9.934;2023-04-25T08:43:48;10.77;;;2.50;;
4317;SDS011;2172;53.576;9.934;2023-04-25T08:46:17;9.33;;;2.20;;
4317;SDS011;2172;53.576;9.934;2023-04-25T08:49:04;5.40;;;2.33;;
4317;SDS011;2172;53.576;9.934;2023-04-25T08:51:32;9.13;;;2.53;;
4317;SDS011;2172;53.576;9.934;2023-04-25T08:54:05;9.90;;;2.40;;
4317;SDS011;2172;53.576;9.934;2023-04-25T08:56:37;9.20;;;2.57;;
4317;SDS011;2172;53.576;9.934;2023-04-25T08:59:06;6.60;;;2.73;;
4317;SDS011;2172;53.576;9.934;2023-04-25T09:01:37;11.30;;;2.70;;
4317;SDS011;2172;53.576;9.934;2023-04-25T09:04:06;8.57;;;2.80;;
4317;SDS011;2172;53.576;9.934;2023-04-25T09:06:33;6.23;;;2.10;;
4317;SDS011;2172;53.576;9.934;2023-04-25T09:09:02;6.00;;;1.87;;
4317;SDS011;2172;53.576;9.934;2023-04-25T09:11:31;4.33;;;1.70;;
4317;SDS011;2172;53.576;9.934;2023-04-25T09:14:14;5.17;;;2.23;;
4317;SDS011;2172;53.576;9.934;2023-04-25T09:16:58;9.57;;;2.70;;
4317;SDS011;2172;53.576;9.934;2023-04-25T09:19:46;6.50;;;2.30;;
4317;SDS011;2172;53.576;9.934;2023-04-25T09:22:26;4.40;;;2.10;;
4317;SDS011;2172;53.576;9.934;2023-04-25T09:24:57;10.63;;;2.40;;
4317;SDS011;2172;53.576;9.934;2023-04-25T09:27:28;12.90;;;2.70;;
4317;SDS011;2172;53.576;9.934;2023-04-25T09:30:05;9.33;;;2.40;;
4317;SDS011;2172;53.576;9.934;2023-04-25T09:32:49;8.33;;;2.40;;
4317;SDS011;2172;53.576;9.934;2023-04-25T09:35:23;11.63;;;2.63;;
4317;SDS011;2172;53.576;9.934;2023-04-25T09:37:53;6.03;;;2.40;;
4317;SDS011;2172;53.576;9.934;2023-04-25T09:40:54;16.07;;;2.80;;
4317;SDS011;2172;53.576;9.934;2023-04-25T09:43:42;8.23;;;2.50;;
4317;SDS011;2172;53.576;9.934;2023-04-25T09:46:15;10.33;;;2.80;;
4317;SDS011;2172;53.576;9.934;2023-04-25T09:48:51;9.07;;;2.27;;
4317;SDS011;2172;53.576;9.934;2023-04-25T09:51:29;7.43;;;2.20;;
4317;SDS011;2172;53.576;9.934;2023-04-25T09:53:58;6.50;;;2.30;;
4317;SDS011;2172;53.576;9.934;2023-04-25T09:56:42;2.87;;;2.23;;
4317;SDS011;2172;53.576;9.934;2023-04-25T09:59:10;10.10;;;2.33;;
4317;SDS011;2172;53.576;9.934;2023-04-25T10:01:40;10.70;;;2.90;;
4317;SDS011;2172;53.576;9.934;2023-04-25T10:04:14;7.90;;;2.73;;
4317;SDS011;2172;53.576;9.934;2023-04-25T10:06:54;6.90;;;2.60;;
4317;SDS011;2172;53.576;9.934;2023-04-25T10:09:24;5.30;;;2.10;;
4317;SDS011;2172;53.576;9.934;2023-04-25T10:11:54;7.00;;;2.10;;
4317;SDS011;2172;53.576;9.934;2023-04-25T10:14:23;8.20;;;1.80;;
4317;SDS011;2172;53.576;9.934;2023-04-25T10:16:52;4.43;;;1.60;;
4317;SDS011;2172;53.576;9.934;2023-04-25T10:19:21;6.03;;;1.40;;
4317;SDS011;2172;53.576;9.934;2023-04-25T10:21:50;14.90;;;3.60;;
4317;SDS011;2172;53.576;9.934;2023-04-25T10:24:21;9.10;;;2.00;;
4317;SDS011;2172;53.576;9.934;2023-04-25T10:26:48;8.03;;;2.30;;
4317;SDS011;2172;53.576;9.934;2023-04-25T10:29:21;6.33;;;2.90;;
4317;SDS011;2172;53.576;9.934;2023-04-25T10:31:49;7.30;;;2.50;;
4317;SDS011;2172;53.576;9.934;2023-04-25T10:34:18;7.60;;;3.20;;
4317;SDS011;2172;53.576;9.934;2023-04-25T10:36:50;5.80;;;2.10;;
4317;SDS011;2172;53.576;9.934;2023-04-25T10:39:22;9.03;;;2.23;;
4317;SDS011;2172;53.576;9.934;2023-04-25T10:41:54;5.17;;;2.10;;
4317;SDS011;2172;53.576;9.934;2023-04-25T10:44:23;10.77;;;2.73;;
4317;SDS011;2172;53.576;9.934;2023-04-25T10:46:54;7.90;;;2.50;;
4317;SDS011;2172;53.576;9.934;2023-04-25T10:49:34;7.37;;;2.07;;
4317;SDS011;2172;53.576;9.934;2023-04-25T10:52:18;7.87;;;2.20;;
4317;SDS011;2172;53.576;9.934;2023-04-25T10:54:52;6.07;;;2.17;;
4317;SDS011;2172;53.576;9.934;2023-04-25T10:57:30;5.30;;;2.07;;
4317;SDS011;2172;53.576;9.934;2023-04-25T11:00:01;5.47;;;2.00;;
4317;SDS011;2172;53.576;9.934;2023-04-25T11:02:36;4.93;;;1.83;;
4317;SDS011;2172;53.576;9.934;2023-04-25T11:05:09;7.57;;;2.23;;
4317;SDS011;2172;53.576;9.934;2023-04-25T11:07:43;5.40;;;1.90;;
4317;SDS011;2172;53.576;9.934;2023-04-25T11:10:15;10.20;;;2.63;;
4317;SDS011;2172;53.576;9.934;2023-04-25T11:12:42;8.23;;;2.37;;
4317;SDS011;2172;53.576;9.934;2023-04-25T11:15:11;8.60;;;2.30;;
4317;SDS011;2172;53.576;9.934;2023-04-25T11:17:38;7.83;;;2.93;;
4317;SDS011;2172;53.576;9.934;2023-04-25T11:20:07;6.87;;;2.40;;
4317;SDS011;2172;53.576;9.934;2023-04-25T11:22:39;4.03;;;1.93;;
4317;SDS011;2172;53.576;9.934;2023-04-25T11:25:07;5.50;;;2.50;;
4317;SDS011;2172;53.576;9.934;2023-04-25T11:27:37;11.53;;;2.13;;
4317;SDS011;2172;53.576;9.934;2023-04-25T11:30:09;6.97;;;1.97;;
4317;SDS011;2172;53.576;9.934;2023-04-25T11:32:39;11.50;;;2.00;;
4317;SDS011;2172;53.576;9.934;2023-04-25T11:35:07;5.50;;;2.20;;
4317;SDS011;2172;53.576;9.934;2023-04-25T11:37:36;5.80;;;1.30;;
4317;SDS011;2172;53.576;9.934;2023-04-25T11:40:06;3.03;;;1.50;;
4317;SDS011;2172;53.576;9.934;2023-04-25T11:42:36;7.20;;;2.37;;
4317;SDS011;2172;53.576;9.934;2023-04-25T11:45:05;4.80;;;2.43;;
4317;SDS011;2172;53.576;9.934;2023-04-25T11:47:33;4.30;;;2.07;;
4317;SDS011;2172;53.576;9.934;2023-04-25T11:50:01;2.50;;;1.40;;
4317;SDS011;2172;53.576;9.934;2023-04-25T11:52:40;7.50;;;2.10;;
4317;SDS011;2172;53.576;9.934;2023-04-25T11:55:09;4.70;;;1.97;;
4317;SDS011;2172;53.576;9.934;2023-04-25T11:57:39;5.80;;;1.57;;
4317;SDS011;2172;53.576;9.934;2023-04-25T12:00:09;3.00;;;1.50;;
4317;SDS011;2172;53.576;9.934;2023-04-25T12:02:40;5.87;;;1.63;;
4317;SDS011;2172;53.576;9.934;2023-04-25T12:05:08;5.50;;;1.70;;
4317;SDS011;2172;53.576;9.934;2023-04-25T12:07:36;6.40;;;1.90;;
4317;SDS011;2172;53.576;9.934;2023-04-25T12:10:06;2.70;;;1.30;;
4317;SDS011;2172;53.576;9.934;2023-04-25T12:12:34;4.73;;;1.83;;
4317;SDS011;2172;53.576;9.934;2023-04-25T12:15:12;4.70;;;1.50;;
4317;SDS011;2172;53.576;9.934;2023-04-25T12:17:44;6.80;;;1.83;;
4317;SDS011;2172;53.576;9.934;2023-04-25T12:20:13;6.50;;;1.60;;
4317;SDS011;2172;53.576;9.934;2023-04-25T12:22:41;3.47;;;1.30;;
4317;SDS011;2172;53.576;9.934;2023-04-25T12:25:12;7.60;;;1.40;;
4317;SDS011;2172;53.576;9.934;2023-04-25T12:27:40;4.30;;;1.30;;
4317;SDS011;2172;53.576;9.934;2023-04-25T12:30:09;6.47;;;1.50;;
4317;SDS011;2172;53.576;9.934;2023-04-25T12:32:37;6.40;;;1.43;;
4317;SDS011;2172;53.576;9.934;2023-04-25T12:35:05;6.43;;;2.40;;
4317;SDS011;2172;53.576;9.934;2023-04-25T12:37:33;9.20;;;2.00;;
4317;SDS011;2172;53.576;9.934;2023-04-25T12:40:00;9.23;;;1.57;;
4317;SDS011;2172;53.576;9.934;2023-04-25T12:42:31;9.00;;;2.10;;
4317;SDS011;2172;53.576;9.934;2023-04-25T12:44:58;6.30;;;1.97;;
4317;SDS011;2172;53.576;9.934;2023-04-25T12:47:26;8.90;;;3.30;;
4317;SDS011;2172;53.576;9.934;2023-04-25T12:49:53;4.37;;;2.30;;
4317;SDS011;2172;53.576;9.934;2023-04-25T12:52:21;11.77;;;3.63;;
4317;SDS011;2172;53.576;9.934;2023-04-25T12:54:48;6.97;;;3.10;;
4317;SDS011;2172;53.576;9.934;2023-04-25T12:57:16;5.47;;;1.80;;
4317;SDS011;2172;53.576;9.934;2023-04-25T12:59:44;5.20;;;1.77;;
4317;SDS011;2172;53.576;9.934;2023-04-25T13:02:12;9.83;;;2.50;;
4317;SDS011;2172;53.576;9.934;2023-04-25T13:04:39;5.00;;;1.80;;
4317;SDS011;2172;53.576;9.934;2023-04-25T13:07:07;4.13;;;2.00;;
4317;SDS011;2172;53.576;9.934;2023-04-25T13:09:34;8.80;;;2.07;;
4317;SDS011;2172;53.576;9.934;2023-04-25T13:12:02;5.53;;;1.60;;
4317;SDS011;2172;53.576;9.934;2023-04-25T13:14:30;8.67;;;2.33;;
4317;SDS011;2172;53.576;9.934;2023-04-25T13:16:59;9.70;;;2.73;;
4317;SDS011;2172;53.576;9.934;2023-04-25T13:19:27;6.30;;;1.70;;
4317;SDS011;2172;53.576;9.934;2023-04-25T13:21:54;6.70;;;2.30;;
4317;SDS011;2172;53.576;9.934;2023-04-25T13:24:22;7.80;;;1.90;;
4317;SDS011;2172;53.576;9.934;2023-04-25T13:26:49;9.60;;;2.77;;
4317;SDS011;2172;53.576;9.934;2023-04-25T13:29:17;7.60;;;2.27;;
4317;SDS011;2172;53.576;9.934;2023-04-25T13:31:44;5.40;;;1.90;;
4317;SDS011;2172;53.576;9.934;2023-04-25T13:34:13;6.93;;;2.50;;
4317;SDS011;2172;53.576;9.934;2023-04-25T13:36:41;6.47;;;1.93;;
4317;SDS011;2172;53.576;9.934;2023-04-25T13:39:08;6.83;;;2.07;;
4317;SDS011;2172;53.576;9.934;2023-04-25T13:41:37;8.00;;;2.30;;
4317;SDS011;2172;53.576;9.934;2023-04-25T13:44:05;6.43;;;2.33;;
4317;SDS011;2172;53.576;9.934;2023-04-25T13:46:32;11.20;;;2.57;;
4317;SDS011;2172;53.576;9.934;2023-04-25T13:49:00;13.90;;;2.60;;
4317;SDS011;2172;53.576;9.934;2023-04-25T13:51:28;3.33;;;1.70;;
4317;SDS011;2172;53.576;9.934;2023-04-25T13:53:56;3.87;;;1.40;;
4317;SDS011;2172;53.576;9.934;2023-04-25T13:56:24;6.53;;;2.20;;
4317;SDS011;2172;53.576;9.934;2023-04-25T13:58:51;6.33;;;1.90;;
4317;SDS011;2172;53.576;9.934;2023-04-25T14:01:19;5.80;;;1.80;;
4317;SDS011;2172;53.576;9.934;2023-04-25T14:03:47;3.57;;;2.03;;
4317;SDS011;2172;53.576;9.934;2023-04-25T14:06:14;4.33;;;2.33;;
4317;SDS011;2172;53.576;9.934;2023-04-25T14:08:49;10.87;;;2.97;;
4317;SDS011;2172;53.576;9.934;2023-04-25T14:11:16;4.83;;;2.07;;
4317;SDS011;2172;53.576;9.934;2023-04-25T14:13:44;11.93;;;2.90;;
4317;SDS011;2172;53.576;9.934;2023-04-25T14:16:12;6.03;;;2.93;;
4317;SDS011;2172;53.576;9.934;2023-04-25T14:18:40;10.43;;;2.63;;
4317;SDS011;2172;53.576;9.934;2023-04-25T14:21:07;8.37;;;2.17;;
4317;SDS011;2172;53.576;9.934;2023-04-25T14:23:35;5.87;;;2.90;;
4317;SDS011;2172;53.576;9.934;2023-04-25T14:26:04;7.80;;;1.97;;
4317;SDS011;2172;53.576;9.934;2023-04-25T14:28:32;5.70;;;2.33;;
4317;SDS011;2172;53.576;9.934;2023-04-25T14:30:59;6.80;;;1.77;;
4317;SDS011;2172;53.576;9.934;2023-04-25T14:33:27;7.23;;;2.37;;
4317;SDS011;2172;53.576;9.934;2023-04-25T14:35:55;8.30;;;2.53;;
4317;SDS011;2172;53.576;9.934;2023-04-25T14:38:23;5.50;;;1.53;;
4317;SDS011;2172;53.576;9.934;2023-04-25T14:40:52;7.03;;;2.43;;
4317;SDS011;2172;53.576;9.934;2023-04-25T14:43:21;8.30;;;2.63;;
4317;SDS011;2172;53.576;9.934;2023-04-25T14:45:49;5.60;;;1.80;;
4317;SDS011;2172;53.576;9.934;2023-04-25T14:48:17;6.10;;;2.03;;
4317;SDS011;2172;53.576;9.934;2023-04-25T14:50:45;8.37;;;2.13;;
4317;SDS011;2172;53.576;9.934;2023-04-25T14:53:12;4.10;;;1.70;;
4317;SDS011;2172;53.576;9.934;2023-04-25T14:55:40;3.77;;;1.20;;
4317;SDS011;2172;53.576;9.934;2023-04-25T14:58:08;4.73;;;1.90;;
4317;SDS011;2172;53.576;9.934;2023-04-25T15:00:37;3.67;;;1.80;;
4317;SDS011;2172;53.576;9.934;2023-04-25T15:03:04;5.37;;;2.10;;
4317;SDS011;2172;53.576;9.934;2023-04-25T15:05:32;11.30;;;2.73;;
4317;SDS011;2172;53.576;9.934;2023-04-25T15:08:01;6.90;;;2.10;;
4317;SDS011;2172;53.576;9.934;2023-04-25T15:10:29;7.53;;;2.30;;
4317;SDS011;2172;53.576;9.934;2023-04-25T15:12:56;5.87;;;3.33;;
4317;SDS011;2172;53.576;9.934;2023-04-25T15:15:24;8.83;;;2.40;;
4317;SDS011;2172;53.576;9.934;2023-04-25T15:17:53;5.40;;;1.90;;
4317;SDS011;2172;53.576;9.934;2023-04-25T15:20:21;7.43;;;2.47;;
4317;SDS011;2172;53.576;9.934;2023-04-25T15:22:50;8.10;;;2.23;;
4317;SDS011;2172;53.576;9.934;2023-04-25T15:25:18;8.73;;;2.53;;
4317;SDS011;2172;53.576;9.934;2023-04-25T15:27:45;5.43;;;1.90;;
4317;SDS011;2172;53.576;9.934;2023-04-25T15:30:15;10.13;;;2.40;;
4317;SDS011;2172;53.576;9.934;2023-04-25T15:32:42;7.90;;;2.53;;
4317;SDS011;2172;53.576;9.934;2023-04-25T15:35:14;7.83;;;2.93;;
4317;SDS011;2172;53.576;9.934;2023-04-25T15:37:42;3.60;;;1.83;;
4317;SDS011;2172;53.576;9.934;2023-04-25T15:40:10;7.00;;;2.60;;
4317;SDS011;2172;53.576;9.934;2023-04-25T15:42:40;12.00;;;1.80;;
4317;SDS011;2172;53.576;9.934;2023-04-25T15:45:09;9.33;;;2.00;;
4317;SDS011;2172;53.576;9.934;2023-04-25T15:47:38;5.13;;;1.57;;
4317;SDS011;2172;53.576;9.934;2023-04-25T15:50:06;8.73;;;2.10;;
4317;SDS011;2172;53.576;9.934;2023-04-25T15:52:36;3.97;;;1.77;;
4317;SDS011;2172;53.576;9.934;2023-04-25T15:55:04;8.20;;;2.90;;
4317;SDS011;2172;53.576;9.934;2023-04-25T15:57:33;5.00;;;2.10;;
4317;SDS011;2172;53.576;9.934;2023-04-25T16:00:01;5.90;;;1.93;;
4317;SDS011;2172;53.576;9.934;2023-04-25T16:02:36;7.30;;;1.80;;
4317;SDS011;2172;53.576;9.934;2023-04-25T16:05:05;6.80;;;1.60;;
4317;SDS011;2172;53.576;9.934;2023-04-25T16:07:33;4.77;;;1.83;;
4317;SDS011;2172;53.576;9.934;2023-04-25T16:10:02;7.00;;;1.80;;
4317;SDS011;2172;53.576;9.934;2023-04-25T16:12:30;8.00;;;1.80;;